createdAt,value
2018-11-26T00:00:30.351Z,16.10
2018-11-26T00:01:30.286Z,16.30
2018-11-26T00:02:30.214Z,16.00
2018-11-26T00:03:30.146Z,15.80
2018-11-26T00:04:30.081Z,16.40
2018-11-26T00:05:30.014Z,16.10
2018-11-26T00:06:29.945Z,15.80
2018-11-26T00:07:29.878Z,15.50
2018-11-26T00:08:29.830Z,16.00
2018-11-26T00:09:29.751Z,16.00
2018-11-26T00:10:29.676Z,15.80
2018-11-26T00:11:29.610Z,15.20
2018-11-26T00:12:29.541Z,15.20
2018-11-26T00:13:29.478Z,15.30
2018-11-26T00:14:29.407Z,15.10
2018-11-26T00:15:29.340Z,14.50
2018-11-26T00:16:29.299Z,15.10
2018-11-26T00:17:29.208Z,15.10
2018-11-26T00:18:29.140Z,15.30
2018-11-26T00:19:29.092Z,14.90
2018-11-26T00:20:29.005Z,15.30
2018-11-26T00:21:28.938Z,15.60
2018-11-26T00:22:28.873Z,15.10
2018-11-26T00:23:28.803Z,15.00
2018-11-26T00:24:28.736Z,15.70
2018-11-26T00:25:28.676Z,14.60
2018-11-26T00:26:28.600Z,14.40
2018-11-26T00:27:28.540Z,14.80
2018-11-26T00:28:28.469Z,14.40
2018-11-26T00:29:28.402Z,14.20
2018-11-26T00:30:28.367Z,14.80
2018-11-26T00:31:28.268Z,14.00
2018-11-26T00:32:28.201Z,15.20
2018-11-26T00:33:28.132Z,13.80
2018-11-26T00:34:28.062Z,13.60
2018-11-26T00:35:27.997Z,14.00
2018-11-26T00:36:27.931Z,14.20
2018-11-26T00:37:27.865Z,13.60
2018-11-26T00:38:27.797Z,13.50
2018-11-26T00:39:27.730Z,13.70
2018-11-26T00:40:27.665Z,13.40
2018-11-26T00:41:27.603Z,12.70
2018-11-26T00:42:27.528Z,12.90
2018-11-26T00:43:27.476Z,13.40
2018-11-26T00:44:27.395Z,12.70
2018-11-26T00:45:27.330Z,13.40
2018-11-26T00:46:27.258Z,13.10
2018-11-26T00:47:27.192Z,12.90
2018-11-26T00:48:27.130Z,12.70
2018-11-26T00:49:27.056Z,12.90
2018-11-26T00:50:26.990Z,13.70
2018-11-26T00:51:26.925Z,13.60
2018-11-26T00:52:26.887Z,13.10
2018-11-26T00:53:26.833Z,13.00
2018-11-26T00:54:26.721Z,13.30
2018-11-26T00:55:26.656Z,13.10
2018-11-26T00:56:26.593Z,13.90
2018-11-26T00:57:26.523Z,14.20
2018-11-26T00:58:26.459Z,13.30
2018-11-26T00:59:26.386Z,13.30
2018-11-26T01:00:26.327Z,14.10
2018-11-26T01:01:26.255Z,13.70
2018-11-26T01:02:26.184Z,14.20
2018-11-26T01:03:26.124Z,13.70
2018-11-26T01:04:26.052Z,14.20
2018-11-26T01:05:25.985Z,14.30
2018-11-26T01:06:25.918Z,15.00
2018-11-26T01:07:25.851Z,15.00
2018-11-26T01:08:25.784Z,14.40
2018-11-26T01:09:25.716Z,14.30
2018-11-26T01:10:25.645Z,14.60
2018-11-26T01:11:25.582Z,14.80
2018-11-26T01:12:25.514Z,14.40
2018-11-26T01:13:25.447Z,13.90
2018-11-26T01:14:25.389Z,14.30
2018-11-26T01:15:25.313Z,14.60
2018-11-26T01:16:25.245Z,14.90
2018-11-26T01:17:25.178Z,13.90
2018-11-26T01:18:25.109Z,15.00
2018-11-26T01:19:25.045Z,14.10
2018-11-26T01:20:24.977Z,14.90
2018-11-26T01:21:24.907Z,14.40
2018-11-26T01:22:24.839Z,14.60
2018-11-26T01:23:24.773Z,15.00
2018-11-26T01:24:24.708Z,14.60
2018-11-26T01:25:24.639Z,15.50
2018-11-26T01:26:24.572Z,14.40
2018-11-26T01:27:24.503Z,15.20
2018-11-26T01:28:24.436Z,15.80
2018-11-26T01:29:24.375Z,15.40
2018-11-26T01:30:24.304Z,14.90
2018-11-26T01:31:24.237Z,14.20
2018-11-26T01:32:24.168Z,14.90
2018-11-26T01:33:24.104Z,13.90
2018-11-26T01:34:24.034Z,15.60
2018-11-26T01:35:23.973Z,15.40
2018-11-26T01:36:23.899Z,14.20
2018-11-26T01:37:23.834Z,14.60
2018-11-26T01:38:23.762Z,14.30
2018-11-26T01:39:23.693Z,15.60
2018-11-26T01:40:23.630Z,14.70
2018-11-26T01:41:23.563Z,15.00
2018-11-26T01:42:23.494Z,15.00
2018-11-26T01:43:23.428Z,14.20
2018-11-26T01:44:23.366Z,14.30
2018-11-26T01:45:23.293Z,14.30
2018-11-26T01:46:23.229Z,14.60
2018-11-26T01:47:23.159Z,14.30
2018-11-26T01:48:23.091Z,14.70
2018-11-26T01:49:23.023Z,13.40
2018-11-26T01:50:22.956Z,13.70
2018-11-26T01:51:22.890Z,13.50
2018-11-26T01:52:22.822Z,12.90
2018-11-26T01:53:22.756Z,13.00
2018-11-26T01:54:22.688Z,13.20
2018-11-26T01:55:22.617Z,12.60
2018-11-26T01:56:22.553Z,12.20
2018-11-26T01:57:22.485Z,12.20
2018-11-26T01:58:22.419Z,11.90
2018-11-26T01:59:22.354Z,11.90
2018-11-26T02:00:22.285Z,12.00
2018-11-26T02:01:22.224Z,11.70
2018-11-26T02:02:22.151Z,11.50
2018-11-26T02:03:22.079Z,12.10
2018-11-26T02:04:22.016Z,11.70
2018-11-26T02:05:21.949Z,11.00
2018-11-26T02:06:21.881Z,10.60
2018-11-26T02:07:21.814Z,10.80
2018-11-26T02:08:21.755Z,11.00
2018-11-26T02:09:21.678Z,11.20
2018-11-26T02:10:21.610Z,10.90
2018-11-26T02:11:21.545Z,10.60
2018-11-26T02:12:21.477Z,10.80
2018-11-26T02:13:21.416Z,10.70
2018-11-26T02:14:21.343Z,10.80
2018-11-26T02:15:21.274Z,10.40
2018-11-26T02:16:21.210Z,10.40
2018-11-26T02:17:21.142Z,10.80
2018-11-26T02:18:21.071Z,10.50
2018-11-26T02:19:21.009Z,11.10
2018-11-26T02:20:20.935Z,10.40
2018-11-26T02:21:20.877Z,10.40
2018-11-26T02:22:20.808Z,11.10
2018-11-26T02:23:20.739Z,10.80
2018-11-26T02:24:20.671Z,10.60
2018-11-26T02:25:20.608Z,10.80
2018-11-26T02:26:20.533Z,11.30
2018-11-26T02:27:20.507Z,10.70
2018-11-26T02:28:20.403Z,10.60
2018-11-26T02:29:20.335Z,10.80
2018-11-26T02:30:20.271Z,11.10
2018-11-26T02:31:20.205Z,10.60
2018-11-26T02:32:20.136Z,10.70
2018-11-26T02:33:20.065Z,11.10
2018-11-26T02:34:19.998Z,11.30
2018-11-26T02:35:19.957Z,11.10
2018-11-26T02:36:19.867Z,11.10
2018-11-26T02:37:19.800Z,11.00
2018-11-26T02:38:19.729Z,10.60
2018-11-26T02:39:19.664Z,10.80
2018-11-26T02:40:19.595Z,11.30
2018-11-26T02:41:19.529Z,10.00
2018-11-26T02:42:19.462Z,11.00
2018-11-26T02:43:19.396Z,10.90
2018-11-26T02:44:19.323Z,10.80
2018-11-26T02:45:19.260Z,10.60
2018-11-26T02:46:19.193Z,10.30
2018-11-26T02:47:19.126Z,10.20
2018-11-26T02:48:19.057Z,10.80
2018-11-26T02:49:18.992Z,10.50
2018-11-26T02:50:18.931Z,9.90
2018-11-26T02:51:18.854Z,10.50
2018-11-26T02:52:18.787Z,11.00
2018-11-26T02:53:18.723Z,10.50
2018-11-26T02:54:18.655Z,10.60
2018-11-26T02:55:18.593Z,10.60
2018-11-26T02:56:18.527Z,10.40
2018-11-26T02:57:18.452Z,10.30
2018-11-26T02:58:18.384Z,10.70
2018-11-26T02:59:18.319Z,10.80
2018-11-26T03:00:18.252Z,10.50
2018-11-26T03:01:18.182Z,11.00
2018-11-26T03:02:18.115Z,11.00
2018-11-26T03:03:18.045Z,10.60
2018-11-26T03:04:17.984Z,10.50
2018-11-26T03:05:17.915Z,10.40
2018-11-26T03:06:17.855Z,10.50
2018-11-26T03:07:17.782Z,10.20
2018-11-26T03:08:17.712Z,10.80
2018-11-26T03:09:17.648Z,10.60
2018-11-26T03:10:17.576Z,10.40
2018-11-26T03:11:17.512Z,10.70
2018-11-26T03:12:17.442Z,10.10
2018-11-26T03:13:17.375Z,10.50
2018-11-26T03:14:17.312Z,10.40
2018-11-26T03:15:17.251Z,9.80
2018-11-26T03:16:17.177Z,10.20
2018-11-26T03:17:17.106Z,9.80
2018-11-26T03:18:17.038Z,10.30
2018-11-26T03:19:16.969Z,10.10
2018-11-26T03:20:16.906Z,10.30
2018-11-26T03:21:16.841Z,10.00
2018-11-26T03:22:16.774Z,10.00
2018-11-26T03:23:16.704Z,9.90
2018-11-26T03:24:16.639Z,10.30
2018-11-26T03:25:16.572Z,10.10
2018-11-26T03:26:16.518Z,10.00
2018-11-26T03:27:16.440Z,10.10
2018-11-26T03:28:16.367Z,10.20
2018-11-26T03:29:16.332Z,9.70
2018-11-26T03:30:16.232Z,9.70
2018-11-26T03:31:16.167Z,10.30
2018-11-26T03:32:16.101Z,9.80
2018-11-26T03:33:16.032Z,10.30
2018-11-26T03:34:15.966Z,10.50
2018-11-26T03:35:15.899Z,10.20
2018-11-26T03:36:15.830Z,11.30
2018-11-26T03:37:15.761Z,10.90
2018-11-26T03:38:15.695Z,10.50
2018-11-26T03:39:15.628Z,11.30
2018-11-26T03:40:15.564Z,11.00
2018-11-26T03:41:15.495Z,11.20
2018-11-26T03:42:15.427Z,11.70
2018-11-26T03:43:15.360Z,11.60
2018-11-26T03:44:15.296Z,11.80
2018-11-26T03:45:15.230Z,11.60
2018-11-26T03:46:15.156Z,11.60
2018-11-26T03:47:15.093Z,11.80
2018-11-26T03:48:15.023Z,10.60
2018-11-26T03:49:14.956Z,11.50
2018-11-26T03:50:14.893Z,11.40
2018-11-26T03:51:14.822Z,11.70
2018-11-26T03:52:14.756Z,12.00
2018-11-26T03:53:14.686Z,12.40
2018-11-26T03:54:14.621Z,11.80
2018-11-26T03:55:14.566Z,11.30
2018-11-26T03:56:14.492Z,11.90
2018-11-26T03:57:14.421Z,12.00
2018-11-26T03:58:14.360Z,11.70
2018-11-26T03:59:14.289Z,12.10
2018-11-26T04:00:14.218Z,11.80
2018-11-26T04:01:14.150Z,11.90
2018-11-26T04:02:14.087Z,12.30
2018-11-26T04:03:14.027Z,13.30
2018-11-26T04:04:13.945Z,13.00
2018-11-26T04:05:13.886Z,12.80
2018-11-26T04:06:13.813Z,14.10
2018-11-26T04:07:13.750Z,12.90
2018-11-26T04:08:13.681Z,14.50
2018-11-26T04:09:13.616Z,14.30
2018-11-26T04:10:13.546Z,13.90
2018-11-26T04:11:13.483Z,13.70
2018-11-26T04:12:13.415Z,13.50
2018-11-26T04:13:13.345Z,14.00
2018-11-26T04:14:13.275Z,12.60
2018-11-26T04:15:13.213Z,12.90
2018-11-26T04:16:13.146Z,13.10
2018-11-26T04:17:13.083Z,12.20
2018-11-26T04:18:13.009Z,12.20
2018-11-26T04:19:12.944Z,12.40
2018-11-26T04:20:12.883Z,12.50
2018-11-26T04:21:12.809Z,12.40
2018-11-26T04:22:12.741Z,13.10
2018-11-26T04:23:12.674Z,11.90
2018-11-26T04:24:12.606Z,12.40
2018-11-26T04:25:12.543Z,12.30
2018-11-26T04:26:12.473Z,12.60
2018-11-26T04:27:12.405Z,13.00
2018-11-26T04:28:12.338Z,13.10
2018-11-26T04:29:12.267Z,13.60
2018-11-26T04:30:12.203Z,13.00
2018-11-26T04:31:12.134Z,14.30
2018-11-26T04:32:12.068Z,13.90
2018-11-26T04:33:12.002Z,13.70
2018-11-26T04:34:11.934Z,14.00
2018-11-26T04:35:11.865Z,14.80
2018-11-26T04:36:11.799Z,15.00
2018-11-26T04:37:11.732Z,14.30
2018-11-26T04:38:11.668Z,15.10
2018-11-26T04:39:11.599Z,14.30
2018-11-26T04:40:11.533Z,14.50
2018-11-26T04:41:11.463Z,15.90
2018-11-26T04:42:11.396Z,15.10
2018-11-26T04:43:11.326Z,14.10
2018-11-26T04:44:11.262Z,13.60
2018-11-26T04:45:11.195Z,13.40
2018-11-26T04:46:11.126Z,13.60
2018-11-26T04:47:11.060Z,13.80
2018-11-26T04:48:10.995Z,14.40
2018-11-26T04:49:10.929Z,13.50
2018-11-26T04:50:10.857Z,13.60
2018-11-26T04:51:10.791Z,13.30
2018-11-26T04:52:10.724Z,13.00
2018-11-26T04:53:10.656Z,13.20
2018-11-26T04:54:10.590Z,13.50
2018-11-26T04:55:10.524Z,13.10
2018-11-26T04:56:10.464Z,14.20
2018-11-26T04:57:10.386Z,13.80
2018-11-26T04:58:10.319Z,13.90
2018-11-26T04:59:10.253Z,13.70
2018-11-26T05:00:10.207Z,13.50
2018-11-26T05:01:10.119Z,13.30
2018-11-26T05:02:10.049Z,13.70
2018-11-26T05:03:09.988Z,13.60
2018-11-26T05:04:09.917Z,13.80
2018-11-26T05:05:09.844Z,13.40
2018-11-26T05:06:09.780Z,13.30
2018-11-26T05:07:09.715Z,13.40
2018-11-26T05:08:09.647Z,13.40
2018-11-26T05:09:09.581Z,13.40
2018-11-26T05:10:09.526Z,13.30
2018-11-26T05:11:09.451Z,13.20
2018-11-26T05:12:09.377Z,13.00
2018-11-26T05:13:09.310Z,14.00
2018-11-26T05:14:09.242Z,13.00
2018-11-26T05:15:09.174Z,12.90
2018-11-26T05:16:09.107Z,13.10
2018-11-26T05:17:09.040Z,12.60
2018-11-26T05:18:08.971Z,13.50
2018-11-26T05:19:08.903Z,12.80
2018-11-26T05:20:08.848Z,13.70
2018-11-26T05:21:08.769Z,13.60
2018-11-26T05:22:08.703Z,13.60
2018-11-26T05:23:08.631Z,12.80
2018-11-26T05:24:09.106Z,13.20
2018-11-26T05:25:08.503Z,13.20
2018-11-26T05:26:08.431Z,12.90
2018-11-26T05:27:08.369Z,13.50
2018-11-26T05:28:08.301Z,12.90
2018-11-26T05:29:08.231Z,12.90
2018-11-26T05:30:08.160Z,13.00
2018-11-26T05:31:08.159Z,12.90
2018-11-26T05:32:08.028Z,12.10
2018-11-26T05:33:07.962Z,12.60
2018-11-26T05:34:07.893Z,12.30
2018-11-26T05:35:07.825Z,13.00
2018-11-26T05:36:07.761Z,12.30
2018-11-26T05:37:07.692Z,11.90
2018-11-26T05:38:07.628Z,13.00
2018-11-26T05:39:07.555Z,12.30
2018-11-26T05:40:07.489Z,12.30
2018-11-26T05:41:07.419Z,13.20
2018-11-26T05:42:07.353Z,12.50
2018-11-26T05:43:07.290Z,11.20
2018-11-26T05:44:07.220Z,11.90
2018-11-26T05:45:07.156Z,11.80
2018-11-26T05:46:07.084Z,11.80
2018-11-26T05:47:07.021Z,12.20
2018-11-26T05:48:06.954Z,11.90
2018-11-26T05:49:06.883Z,11.80
2018-11-26T05:50:06.813Z,11.60
2018-11-26T05:51:06.741Z,11.80
2018-11-26T05:52:06.682Z,12.40
2018-11-26T05:53:06.612Z,12.00
2018-11-26T05:54:06.543Z,11.70
2018-11-26T05:55:06.477Z,12.70
2018-11-26T05:56:06.410Z,12.30
2018-11-26T05:57:06.345Z,12.80
2018-11-26T05:58:06.274Z,12.70
2018-11-26T05:59:06.207Z,12.70
2018-11-26T06:00:06.142Z,12.60
2018-11-26T06:01:06.074Z,12.80
2018-11-26T06:02:06.032Z,11.90
2018-11-26T06:03:05.967Z,12.70
2018-11-26T06:04:05.952Z,12.40
2018-11-26T06:05:05.841Z,12.70
2018-11-26T06:06:05.745Z,12.60
2018-11-26T06:07:05.716Z,12.90
2018-11-26T06:08:05.601Z,12.80
2018-11-26T06:09:05.535Z,12.90
2018-11-26T06:10:05.461Z,12.80
2018-11-26T06:11:05.398Z,13.40
2018-11-26T06:12:05.331Z,13.00
2018-11-26T06:13:05.292Z,13.10
2018-11-26T06:14:05.203Z,13.20
2018-11-26T06:15:05.142Z,13.50
2018-11-26T06:16:05.065Z,13.80
2018-11-26T06:17:04.997Z,13.70
2018-11-26T06:18:04.928Z,15.70
2018-11-26T06:19:04.861Z,14.30
2018-11-26T06:20:04.798Z,14.30
2018-11-26T06:21:04.778Z,13.90
2018-11-26T06:22:04.660Z,14.30
2018-11-26T06:23:04.591Z,14.00
2018-11-26T06:24:04.524Z,13.90
2018-11-26T06:25:04.460Z,14.10
2018-11-26T06:26:04.392Z,14.40
2018-11-26T06:27:04.339Z,13.90
2018-11-26T06:28:04.253Z,13.70
2018-11-26T06:29:04.187Z,14.60
2018-11-26T06:30:04.121Z,14.00
2018-11-26T06:31:04.054Z,13.70
2018-11-26T06:32:03.986Z,14.00
2018-11-26T06:33:03.920Z,15.30
2018-11-26T06:34:03.851Z,14.40
2018-11-26T06:35:03.782Z,13.80
2018-11-26T06:36:03.717Z,14.50
2018-11-26T06:37:03.650Z,16.30
2018-11-26T06:38:03.585Z,18.20
2018-11-26T06:39:03.511Z,20.80
2018-11-26T06:40:03.446Z,19.60
2018-11-26T06:41:03.399Z,20.00
2018-11-26T06:42:03.313Z,19.10
2018-11-26T06:43:03.247Z,17.40
2018-11-26T06:44:03.181Z,15.90
2018-11-26T06:45:03.115Z,16.20
2018-11-26T06:46:03.040Z,15.50
2018-11-26T06:47:02.979Z,14.80
2018-11-26T06:48:02.910Z,18.70
2018-11-26T06:49:02.844Z,21.30
2018-11-26T06:50:02.777Z,31.30
2018-11-26T06:51:02.708Z,24.40
2018-11-26T06:52:02.646Z,25.00
2018-11-26T06:53:02.578Z,23.20
2018-11-26T06:54:02.507Z,19.50
2018-11-26T06:55:02.453Z,17.60
2018-11-26T06:56:02.374Z,15.40
2018-11-26T06:57:02.302Z,15.20
2018-11-26T06:58:02.240Z,15.50
2018-11-26T06:59:02.172Z,15.50
2018-11-26T07:00:02.104Z,15.30
2018-11-26T07:01:02.037Z,15.50
2018-11-26T07:02:01.991Z,14.80
2018-11-26T07:03:01.903Z,14.30
2018-11-26T07:04:01.835Z,14.90
2018-11-26T07:05:01.770Z,15.00
2018-11-26T07:06:01.698Z,28.00
2018-11-26T07:07:01.636Z,28.60
2018-11-26T07:08:01.568Z,34.60
2018-11-26T07:09:01.502Z,30.90
2018-11-26T07:10:01.430Z,29.60
2018-11-26T07:11:01.367Z,19.80
2018-11-26T07:12:01.301Z,15.70
2018-11-26T07:13:01.231Z,16.50
2018-11-26T07:14:01.165Z,15.10
2018-11-26T07:15:01.102Z,14.30
2018-11-26T07:16:01.032Z,15.40
2018-11-26T07:17:00.969Z,15.10
2018-11-26T07:18:00.898Z,15.40
2018-11-26T07:19:00.829Z,14.30
2018-11-26T07:20:00.764Z,14.20
2018-11-26T07:21:00.697Z,15.00
2018-11-26T07:22:00.626Z,14.30
2018-11-26T07:23:00.562Z,14.30
2018-11-26T07:24:00.498Z,14.60
2018-11-26T07:25:00.427Z,14.50
2018-11-26T07:26:00.359Z,14.90
2018-11-26T07:27:00.302Z,14.40
2018-11-26T07:28:00.228Z,14.30
2018-11-26T07:29:00.169Z,13.90
2018-11-26T07:30:00.107Z,14.20
2018-11-26T07:31:00.051Z,14.40
2018-11-26T07:31:59.958Z,14.00
2018-11-26T07:32:59.893Z,14.20
2018-11-26T07:33:59.823Z,15.00
2018-11-26T07:34:59.756Z,14.30
2018-11-26T07:35:59.690Z,14.60
2018-11-26T07:36:59.623Z,14.60
2018-11-26T07:37:59.555Z,14.30
2018-11-26T07:38:59.488Z,15.30
2018-11-26T07:39:59.426Z,14.40
2018-11-26T07:40:59.355Z,14.70
2018-11-26T07:41:59.305Z,14.30
2018-11-26T07:42:59.221Z,14.60
2018-11-26T07:43:59.157Z,14.50
2018-11-26T07:44:59.092Z,14.80
2018-11-26T07:45:59.020Z,15.40
2018-11-26T07:46:58.952Z,14.40
2018-11-26T07:47:58.901Z,15.40
2018-11-26T07:48:58.817Z,15.20
2018-11-26T07:49:58.751Z,15.70
2018-11-26T07:50:58.689Z,15.80
2018-11-26T07:51:58.617Z,15.60
2018-11-26T07:52:58.551Z,16.30
2018-11-26T07:53:58.486Z,15.40
2018-11-26T07:54:58.418Z,15.40
2018-11-26T07:55:58.349Z,15.40
2018-11-26T07:56:58.280Z,16.30
2018-11-26T07:57:58.215Z,15.50
2018-11-26T07:58:58.149Z,16.80
2018-11-26T07:59:58.084Z,16.00
2018-11-26T08:00:58.020Z,16.20
2018-11-26T08:01:57.949Z,16.50
2018-11-26T08:02:57.882Z,16.10
2018-11-26T08:03:57.816Z,16.50
2018-11-26T08:04:57.750Z,16.10
2018-11-26T08:05:57.680Z,16.80
2018-11-26T08:06:57.613Z,16.20
2018-11-26T08:07:57.545Z,16.10
2018-11-26T08:08:57.485Z,16.60
2018-11-26T08:09:57.418Z,15.70
2018-11-26T08:10:57.350Z,16.10
2018-11-26T08:11:57.279Z,16.20
2018-11-26T08:12:57.212Z,16.70
2018-11-26T08:13:57.145Z,16.40
2018-11-26T08:14:57.078Z,16.60
2018-11-26T08:15:57.010Z,15.80
2018-11-26T08:16:56.945Z,17.20
2018-11-26T08:17:56.881Z,16.70
2018-11-26T08:18:56.809Z,16.70
2018-11-26T08:19:56.743Z,17.10
2018-11-26T08:20:56.677Z,18.40
2018-11-26T08:21:56.608Z,17.10
2018-11-26T08:22:56.544Z,17.90
2018-11-26T08:23:56.476Z,16.50
2018-11-26T08:24:56.411Z,16.90
2018-11-26T08:25:56.343Z,16.20
2018-11-26T08:26:56.283Z,18.10
2018-11-26T08:27:56.211Z,18.30
2018-11-26T08:28:56.141Z,18.10
2018-11-26T08:29:56.073Z,16.50
2018-11-26T08:30:56.009Z,17.40
2018-11-26T08:31:55.944Z,16.30
2018-11-26T08:32:55.873Z,15.30
2018-11-26T08:33:55.809Z,14.90
2018-11-26T08:34:55.741Z,15.20
2018-11-26T08:35:55.675Z,14.90
2018-11-26T08:36:55.611Z,15.40
2018-11-26T08:37:55.537Z,15.30
2018-11-26T08:38:55.473Z,15.10
2018-11-26T08:39:55.406Z,15.40
2018-11-26T08:40:55.340Z,15.90
2018-11-26T08:41:55.271Z,15.20
2018-11-26T08:42:55.214Z,16.10
2018-11-26T08:43:55.139Z,19.60
2018-11-26T08:44:55.073Z,16.50
2018-11-26T08:45:55.013Z,16.30
2018-11-26T08:46:54.939Z,16.90
2018-11-26T08:47:54.888Z,15.90
2018-11-26T08:48:54.805Z,14.70
2018-11-26T08:49:54.751Z,14.40
2018-11-26T08:50:54.673Z,16.20
2018-11-26T08:51:54.604Z,15.50
2018-11-26T08:52:54.539Z,15.40
2018-11-26T08:53:54.469Z,16.10
2018-11-26T08:54:54.405Z,17.40
2018-11-26T08:55:54.342Z,21.70
2018-11-26T08:56:54.270Z,17.40
2018-11-26T08:57:54.203Z,19.70
2018-11-26T08:58:54.139Z,18.40
2018-11-26T08:59:54.071Z,14.70
2018-11-26T09:00:54.005Z,16.20
2018-11-26T09:01:53.934Z,14.70
2018-11-26T09:02:54.282Z,15.20
2018-11-26T09:03:53.800Z,15.40
2018-11-26T09:04:53.737Z,15.20
2018-11-26T09:05:53.671Z,14.60
2018-11-26T09:06:53.601Z,15.50
2018-11-26T09:07:53.538Z,14.90
2018-11-26T09:08:53.467Z,14.70
2018-11-26T09:09:53.405Z,14.90
2018-11-26T09:10:53.336Z,16.00
2018-11-26T09:11:53.270Z,14.40
2018-11-26T09:12:53.203Z,15.10
2018-11-26T09:13:53.137Z,14.30
2018-11-26T09:14:53.071Z,14.00
2018-11-26T09:15:53.001Z,14.40
2018-11-26T09:16:52.936Z,21.90
2018-11-26T09:17:52.872Z,16.10
2018-11-26T09:18:52.803Z,15.60
2018-11-26T09:19:52.737Z,13.40
2018-11-26T09:20:52.670Z,13.90
2018-11-26T09:21:52.599Z,14.70
2018-11-26T09:22:52.535Z,13.60
2018-11-26T09:23:52.470Z,13.90
2018-11-26T09:24:52.402Z,13.80
2018-11-26T09:25:52.348Z,13.80
2018-11-26T09:26:52.276Z,14.90
2018-11-26T09:27:52.242Z,13.70
2018-11-26T09:28:52.149Z,14.20
2018-11-26T09:29:52.071Z,12.70
2018-11-26T09:30:52.013Z,13.20
2018-11-26T09:31:51.932Z,13.00
2018-11-26T09:32:51.869Z,13.60
2018-11-26T09:33:51.798Z,13.40
2018-11-26T09:34:51.735Z,14.30
2018-11-26T09:35:51.668Z,13.30
2018-11-26T09:36:51.602Z,13.60
2018-11-26T09:37:51.538Z,13.50
2018-11-26T09:38:51.467Z,13.40
2018-11-26T09:39:51.399Z,13.00
2018-11-26T09:40:51.384Z,13.40
2018-11-26T09:41:51.267Z,12.40
2018-11-26T09:42:51.201Z,12.50
2018-11-26T09:43:51.134Z,12.80
2018-11-26T09:44:51.069Z,12.80
2018-11-26T09:45:51.002Z,12.00
2018-11-26T09:46:50.940Z,12.40
2018-11-26T09:47:50.865Z,12.50
2018-11-26T09:48:50.800Z,12.00
2018-11-26T09:49:50.731Z,13.10
2018-11-26T09:50:50.676Z,13.80
2018-11-26T09:51:50.600Z,13.20
2018-11-26T09:52:50.539Z,13.30
2018-11-26T09:53:50.466Z,14.80
2018-11-26T09:54:50.409Z,14.20
2018-11-26T09:55:50.333Z,13.60
2018-11-26T09:56:50.266Z,14.40
2018-11-26T09:57:50.204Z,14.00
2018-11-26T09:58:50.135Z,14.70
2018-11-26T09:59:50.064Z,14.40
2018-11-26T10:00:49.997Z,13.60
2018-11-26T10:01:49.929Z,14.50
2018-11-26T10:02:49.897Z,14.70
2018-11-26T10:03:49.801Z,15.00
2018-11-26T10:04:49.730Z,14.10
2018-11-26T10:05:49.659Z,12.00
2018-11-26T10:06:49.598Z,12.90
2018-11-26T10:07:49.527Z,11.30
2018-11-26T10:08:49.471Z,11.10
2018-11-26T10:09:49.396Z,11.60
2018-11-26T10:10:49.331Z,11.50
2018-11-26T10:11:49.263Z,10.60
2018-11-26T10:12:49.200Z,9.90
2018-11-26T10:13:49.134Z,10.70
2018-11-26T10:14:49.062Z,10.20
2018-11-26T10:15:48.996Z,10.00
2018-11-26T10:16:48.926Z,10.30
2018-11-26T10:17:48.903Z,10.60
2018-11-26T10:18:48.795Z,10.20
2018-11-26T10:19:48.729Z,9.60
2018-11-26T10:20:48.663Z,9.90
2018-11-26T10:21:48.597Z,9.20
2018-11-26T10:22:48.542Z,8.90
2018-11-26T10:23:48.461Z,7.50
2018-11-26T10:24:48.399Z,8.00
2018-11-26T10:25:48.327Z,12.00
2018-11-26T10:26:48.263Z,8.50
2018-11-26T10:27:48.197Z,8.40
2018-11-26T10:28:48.132Z,8.10
2018-11-26T10:29:48.070Z,8.30
2018-11-26T10:30:47.997Z,7.80
2018-11-26T10:31:47.930Z,7.70
2018-11-26T10:32:47.859Z,7.40
2018-11-26T10:33:47.997Z,7.70
2018-11-26T10:34:47.730Z,7.60
2018-11-26T10:35:47.663Z,7.50
2018-11-26T10:36:47.607Z,6.80
2018-11-26T10:37:47.530Z,7.00
2018-11-26T10:38:47.465Z,7.50
2018-11-26T10:39:47.394Z,7.20
2018-11-26T10:40:47.331Z,7.50
2018-11-26T10:41:47.265Z,7.20
2018-11-26T10:42:47.200Z,6.80
2018-11-26T10:43:47.129Z,7.10
2018-11-26T10:44:47.065Z,6.90
2018-11-26T10:45:46.994Z,7.30
2018-11-26T10:46:46.932Z,7.30
2018-11-26T10:47:46.875Z,7.20
2018-11-26T10:48:46.796Z,6.70
2018-11-26T10:49:46.738Z,6.70
2018-11-26T10:50:46.662Z,6.60
2018-11-26T10:51:46.596Z,6.50
2018-11-26T10:52:46.534Z,6.30
2018-11-26T10:53:46.474Z,6.60
2018-11-26T10:54:46.398Z,6.70
2018-11-26T10:55:46.329Z,7.10
2018-11-26T10:56:46.264Z,7.20
2018-11-26T10:57:46.197Z,7.10
2018-11-26T10:58:46.129Z,7.30
2018-11-26T10:59:46.062Z,7.00
2018-11-26T11:00:45.999Z,6.70
2018-11-26T11:01:45.932Z,6.70
2018-11-26T11:02:45.865Z,6.60
2018-11-26T11:03:45.801Z,6.80
2018-11-26T11:04:47.755Z,6.70
2018-11-26T11:05:45.658Z,6.90
2018-11-26T11:06:45.591Z,7.30
2018-11-26T11:07:45.528Z,6.80
2018-11-26T11:08:45.462Z,6.90
2018-11-26T11:09:45.398Z,7.10
2018-11-26T11:10:45.327Z,7.00
2018-11-26T11:11:45.269Z,7.30
2018-11-26T11:12:45.210Z,7.40
2018-11-26T11:13:45.145Z,7.60
2018-11-26T11:14:45.061Z,7.60
2018-11-26T11:15:44.993Z,8.60
2018-11-26T11:16:44.928Z,8.10
2018-11-26T11:17:44.883Z,8.40
2018-11-26T11:18:44.799Z,8.70
2018-11-26T11:19:44.747Z,9.30
2018-11-26T11:20:44.659Z,10.10
2018-11-26T11:21:44.591Z,9.50
2018-11-26T11:22:44.527Z,9.20
2018-11-26T11:23:44.706Z,10.00
2018-11-26T11:24:44.402Z,10.00
2018-11-26T11:25:44.327Z,9.60
2018-11-26T11:26:44.265Z,9.80
2018-11-26T11:27:44.195Z,9.80
2018-11-26T11:28:44.128Z,9.30
2018-11-26T11:29:44.062Z,9.80
2018-11-26T11:30:43.991Z,9.00
2018-11-26T11:31:43.921Z,9.00
2018-11-26T11:32:43.860Z,9.40
2018-11-26T11:33:43.811Z,9.20
2018-11-26T11:34:43.724Z,9.40
2018-11-26T11:35:43.661Z,8.50
2018-11-26T11:36:43.594Z,9.20
2018-11-26T11:37:43.525Z,8.50
2018-11-26T11:38:44.043Z,8.70
2018-11-26T11:39:43.392Z,9.20
2018-11-26T11:40:43.325Z,8.90
2018-11-26T11:41:43.261Z,9.10
2018-11-26T11:42:43.197Z,8.90
2018-11-26T11:43:43.123Z,8.30
2018-11-26T11:44:43.065Z,8.90
2018-11-26T11:45:42.989Z,8.90
2018-11-26T11:46:42.924Z,8.70
2018-11-26T11:47:42.857Z,8.70
2018-11-26T11:48:42.788Z,8.80
2018-11-26T11:49:42.720Z,9.30
2018-11-26T11:50:42.659Z,8.80
2018-11-26T11:51:42.592Z,9.30
2018-11-26T11:52:42.522Z,8.90
2018-11-26T11:53:42.455Z,8.80
2018-11-26T11:54:42.403Z,9.40
2018-11-26T11:55:42.339Z,9.20
2018-11-26T11:56:42.272Z,9.40
2018-11-26T11:57:42.189Z,9.50
2018-11-26T11:58:42.121Z,8.90
2018-11-26T11:59:42.060Z,9.20
2018-11-26T12:00:41.993Z,9.20
2018-11-26T12:01:41.924Z,9.50
2018-11-26T12:02:41.854Z,9.30
2018-11-26T12:03:41.788Z,9.10
2018-11-26T12:04:41.725Z,9.10
2018-11-26T12:05:41.655Z,9.40
2018-11-26T12:06:41.592Z,9.60
2018-11-26T12:07:41.527Z,10.20
2018-11-26T12:08:41.462Z,10.10
2018-11-26T12:09:41.391Z,9.70
2018-11-26T12:10:41.321Z,10.10
2018-11-26T12:11:41.254Z,10.30
2018-11-26T12:12:41.189Z,10.70
2018-11-26T12:13:41.125Z,10.80
2018-11-26T12:14:41.054Z,11.10
2018-11-26T12:15:40.996Z,13.00
2018-11-26T12:16:40.937Z,11.80
2018-11-26T12:17:40.855Z,11.80
2018-11-26T12:18:40.788Z,11.80
2018-11-26T12:19:40.724Z,12.00
2018-11-26T12:20:40.657Z,11.70
2018-11-26T12:21:40.589Z,12.50
2018-11-26T12:22:40.525Z,12.10
2018-11-26T12:23:40.453Z,11.90
2018-11-26T12:24:40.388Z,11.70
2018-11-26T12:25:40.325Z,11.30
2018-11-26T12:26:40.269Z,11.30
2018-11-26T12:27:40.184Z,11.40
2018-11-26T12:28:40.117Z,11.50
2018-11-26T12:29:40.055Z,11.70
2018-11-26T12:30:39.988Z,11.40
2018-11-26T12:31:39.920Z,11.40
2018-11-26T12:32:39.855Z,9.90
2018-11-26T12:33:39.788Z,10.20
2018-11-26T12:34:39.718Z,11.10
2018-11-26T12:35:39.658Z,10.10
2018-11-26T12:36:39.585Z,10.50
2018-11-26T12:37:39.518Z,8.90
2018-11-26T12:38:39.452Z,9.00
2018-11-26T12:39:39.385Z,9.50
2018-11-26T12:40:39.320Z,10.30
2018-11-26T12:41:39.248Z,9.60
2018-11-26T12:42:39.189Z,9.30
2018-11-26T12:43:39.120Z,10.10
2018-11-26T12:44:39.054Z,10.40
2018-11-26T12:45:38.985Z,9.50
2018-11-26T12:46:38.917Z,9.70
2018-11-26T12:47:38.849Z,9.40
2018-11-26T12:48:38.781Z,9.90
2018-11-26T12:49:38.717Z,9.30
2018-11-26T12:50:38.650Z,8.80
2018-11-26T12:51:38.583Z,9.00
2018-11-26T12:52:38.520Z,8.90
2018-11-26T12:53:38.449Z,8.60
2018-11-26T12:54:38.387Z,9.10
2018-11-26T12:55:38.316Z,9.20